Pinero, Virginia
Current Conditions -  °F | °C
As of 8:35 PM on Tuesday 21 Oct 2014 (Local Time) from KW75 Reporting Station
Overcast Overcast  
Wind Chill: 60°   Ceiling: 7000
Heat Index: 60°   Visibility: 10mi
Dew Point: 57°   Wind: 0mph
Humidity: 90%   Direction: NA
Pressure: 29.82"   Gusts: NA
Location:  37.4386°N, 76.5499°W
Report Text: KW75 220035Z AUTO 00000KT 10SM SCT060 BKN070 OVC110 16/14 A2982 RMK AO1 T01550139
Loading
Personal Weather Stations






























Interactive Weather Map
Tropical Storm Tracking
New forecast layout! Learn more

10-Day Weather Forecast

Advertisements
Track Severe Weather on mobile